createdAt,value
2019-03-10T00:00:29.809Z,4.20
2019-03-10T00:02:58.262Z,4.55
2019-03-10T00:05:26.764Z,4.22
2019-03-10T00:07:55.382Z,4.05
2019-03-10T00:10:23.897Z,4.58
2019-03-10T00:12:52.338Z,4.20
2019-03-10T00:15:21.039Z,3.67
2019-03-10T00:17:49.471Z,4.40
2019-03-10T00:20:18.151Z,4.03
2019-03-10T00:22:46.705Z,3.75
2019-03-10T00:25:15.277Z,4.90
2019-03-10T00:27:43.724Z,4.67
2019-03-10T00:30:14.341Z,4.30
2019-03-10T00:32:42.912Z,4.58
2019-03-10T00:35:11.595Z,4.35
2019-03-10T00:37:40.310Z,4.62
2019-03-10T00:40:34.633Z,5.28
2019-03-10T00:43:31.436Z,5.10
2019-03-10T00:46:37.811Z,4.60
2019-03-10T00:49:14.889Z,5.42
2019-03-10T00:52:23.547Z,4.85
2019-03-10T00:54:52.022Z,5.35
2019-03-10T00:57:20.460Z,4.92
2019-03-10T00:59:48.930Z,5.50
2019-03-10T01:02:17.652Z,4.65
2019-03-10T01:04:46.097Z,5.67
2019-03-10T01:07:14.896Z,4.30
2019-03-10T01:09:43.439Z,5.10
2019-03-10T01:12:12.017Z,4.45
2019-03-10T01:14:40.524Z,5.55
2019-03-10T01:17:09.903Z,3.92
2019-03-10T01:22:28.744Z,4.70
2019-03-10T01:24:57.186Z,5.10
2019-03-10T01:27:25.638Z,5.00
2019-03-10T01:29:54.101Z,5.10
2019-03-10T01:33:07.308Z,5.08
2019-03-10T01:35:35.904Z,5.08
2019-03-10T01:38:04.350Z,4.60
2019-03-10T01:40:32.783Z,4.00
2019-03-10T01:43:01.264Z,5.15
2019-03-10T01:45:29.723Z,4.50
2019-03-10T01:47:59.352Z,3.92
2019-03-10T01:50:28.041Z,3.92
2019-03-10T01:52:56.561Z,3.47
2019-03-10T01:55:25.016Z,3.77
2019-03-10T01:57:53.553Z,4.33
2019-03-10T02:00:22.135Z,3.60
2019-03-10T02:02:50.604Z,3.87
2019-03-10T02:05:19.080Z,5.00
2019-03-10T02:07:47.524Z,3.83
2019-03-10T02:10:16.027Z,4.50
2019-03-10T02:12:44.575Z,3.98
2019-03-10T02:15:15.159Z,3.58
2019-03-10T02:17:43.620Z,3.50
2019-03-10T02:20:14.920Z,2.67
2019-03-10T02:22:43.363Z,3.05
2019-03-10T02:25:11.981Z,3.75
2019-03-10T02:27:40.490Z,3.62
2019-03-10T02:30:12.127Z,4.62
2019-03-10T02:32:40.583Z,3.55
2019-03-10T02:35:09.181Z,3.40
2019-03-10T02:37:39.924Z,3.55
2019-03-10T02:40:29.248Z,4.22
2019-03-10T02:42:57.771Z,4.00
2019-03-10T02:45:26.304Z,4.95
2019-03-10T02:47:54.803Z,6.45
2019-03-10T02:50:23.331Z,6.30
2019-03-10T02:52:51.776Z,6.75
2019-03-10T02:55:20.245Z,6.92
2019-03-10T02:58:08.136Z,7.60
2019-03-10T03:00:37.484Z,6.12
2019-03-10T03:03:06.014Z,6.10
2019-03-10T03:05:34.516Z,6.30
2019-03-10T03:08:03.082Z,6.15
2019-03-10T03:10:31.585Z,5.80
2019-03-10T03:13:00.016Z,4.92
2019-03-10T03:15:28.506Z,5.55
2019-03-10T03:17:57.094Z,5.60
2019-03-10T03:20:25.791Z,5.40
2019-03-10T03:22:54.275Z,5.42
2019-03-10T03:25:42.053Z,5.08
2019-03-10T03:28:10.793Z,6.08
2019-03-10T03:30:39.284Z,4.90
2019-03-10T03:33:07.725Z,6.12
2019-03-10T03:36:10.392Z,6.00
2019-03-10T03:38:42.083Z,6.50
2019-03-10T03:41:31.420Z,6.45
2019-03-10T03:43:59.868Z,7.20
2019-03-10T03:46:28.325Z,7.40
2019-03-10T03:48:56.796Z,7.95
2019-03-10T03:51:25.232Z,6.78
2019-03-10T03:53:53.692Z,7.28
2019-03-10T03:56:22.225Z,7.42
2019-03-10T03:58:50.749Z,6.72
2019-03-10T04:04:11.092Z,5.00
2019-03-10T04:06:39.610Z,5.03
2019-03-10T04:09:08.997Z,4.78
2019-03-10T04:11:37.541Z,4.10
2019-03-10T04:14:06.054Z,3.83
2019-03-10T04:16:34.551Z,3.80
2019-03-10T04:19:03.012Z,3.60
2019-03-10T04:21:31.526Z,3.40
2019-03-10T04:23:59.963Z,3.52
2019-03-10T04:26:29.074Z,3.85
2019-03-10T04:28:57.518Z,3.37
2019-03-10T04:31:25.956Z,3.70
2019-03-10T04:33:54.483Z,3.90
2019-03-10T04:36:22.937Z,3.25
2019-03-10T04:38:51.383Z,4.05
2019-03-10T04:41:19.840Z,4.10
2019-03-10T04:43:48.291Z,4.00
2019-03-10T04:46:16.814Z,5.22
2019-03-10T04:48:45.304Z,4.58
2019-03-10T04:51:13.767Z,5.67
2019-03-10T04:53:42.208Z,6.10
2019-03-10T04:56:17.990Z,6.75
2019-03-10T04:58:51.100Z,6.40
2019-03-10T05:01:20.004Z,7.97
2019-03-10T05:03:48.614Z,7.72
2019-03-10T05:06:17.048Z,7.47
2019-03-10T05:08:45.491Z,8.15
2019-03-10T05:11:13.963Z,9.08
2019-03-10T05:13:42.396Z,8.33
2019-03-10T05:16:10.855Z,8.65
2019-03-10T05:18:39.323Z,8.70
2019-03-10T05:21:07.759Z,8.90
2019-03-10T05:23:38.464Z,9.98
2019-03-10T05:26:07.066Z,11.28
2019-03-10T05:28:38.047Z,10.08
2019-03-10T05:31:07.349Z,11.22
2019-03-10T05:33:35.815Z,12.20
2019-03-10T05:36:04.392Z,10.78
2019-03-10T05:38:32.837Z,10.80
2019-03-10T05:41:01.307Z,11.85
2019-03-10T05:43:29.757Z,12.00
2019-03-10T05:45:58.195Z,12.58
2019-03-10T05:48:46.002Z,12.45
2019-03-10T05:51:14.449Z,12.98
2019-03-10T05:53:42.988Z,12.82
2019-03-10T05:56:11.448Z,11.70
2019-03-10T05:58:39.964Z,11.75
2019-03-10T06:01:08.407Z,11.57
2019-03-10T06:03:36.889Z,11.75
2019-03-10T06:06:05.468Z,13.98
2019-03-10T06:08:33.987Z,12.53
2019-03-10T06:11:02.477Z,12.07
2019-03-10T06:13:30.948Z,12.35
2019-03-10T06:15:59.383Z,12.47
2019-03-10T06:18:27.939Z,11.57
2019-03-10T06:20:56.376Z,12.65
2019-03-10T06:23:24.873Z,12.95
2019-03-10T06:25:53.337Z,12.95
2019-03-10T06:28:21.783Z,12.50
2019-03-10T06:30:50.228Z,11.38
2019-03-10T06:33:18.699Z,11.68
2019-03-10T06:35:47.140Z,12.73
2019-03-10T06:38:15.593Z,10.88
2019-03-10T06:40:44.063Z,11.50
2019-03-10T06:43:12.504Z,11.18
2019-03-10T06:45:41.019Z,9.78
2019-03-10T06:48:09.491Z,11.35
2019-03-10T06:50:37.931Z,10.48
2019-03-10T06:53:06.383Z,11.63
2019-03-10T06:55:34.860Z,11.50
2019-03-10T06:58:03.312Z,11.55
2019-03-10T07:00:31.758Z,11.68
2019-03-10T07:03:00.224Z,10.15
2019-03-10T07:05:28.732Z,11.00
2019-03-10T07:07:57.188Z,10.08
2019-03-10T07:10:25.663Z,10.10
2019-03-10T07:12:54.179Z,8.95
2019-03-10T07:15:22.700Z,9.25
2019-03-10T07:17:51.304Z,8.05
2019-03-10T07:20:22.603Z,7.25
2019-03-10T07:22:51.051Z,7.03
2019-03-10T07:25:19.526Z,6.47
2019-03-10T07:27:55.351Z,6.45
2019-03-10T07:30:31.364Z,6.45
2019-03-10T07:33:07.309Z,5.72
2019-03-10T07:35:40.205Z,6.17
2019-03-10T07:38:10.283Z,6.70
2019-03-10T07:40:40.365Z,6.10
2019-03-10T07:43:13.191Z,6.73
2019-03-10T07:45:43.285Z,8.63
2019-03-10T07:48:13.368Z,6.70
2019-03-10T07:50:43.479Z,6.60
2019-03-10T07:53:16.428Z,6.43
2019-03-10T07:55:58.375Z,5.67
2019-03-10T08:01:26.376Z,5.40
2019-03-10T08:03:56.461Z,5.42
2019-03-10T08:06:32.400Z,5.80
2019-03-10T08:09:02.483Z,4.45
2019-03-10T08:11:32.584Z,4.67
2019-03-10T08:14:19.418Z,5.27
2019-03-10T08:16:49.508Z,4.67
2019-03-10T08:19:19.598Z,4.83
2019-03-10T08:21:49.703Z,4.07
2019-03-10T08:24:19.787Z,3.60
2019-03-10T08:27:01.622Z,4.25
2019-03-10T08:29:34.658Z,3.77
2019-03-10T08:32:10.838Z,3.85
2019-03-10T08:34:40.914Z,3.70
2019-03-10T08:37:23.156Z,3.23
2019-03-10T08:39:59.249Z,2.60
2019-03-10T08:42:41.381Z,2.65
2019-03-10T08:50:58.367Z,1.70
2019-03-10T08:53:34.215Z,1.23
2019-03-10T08:56:06.804Z,0.70
2019-03-10T08:58:42.389Z,0.60
2019-03-10T09:01:15.380Z,0.95
2019-03-10T09:03:51.240Z,0.45
2019-03-10T09:06:21.428Z,0.50
2019-03-10T09:09:09.625Z,0.40
2019-03-10T09:12:14.496Z,0.50
2019-03-10T09:14:50.208Z,0.30
2019-03-10T09:17:36.510Z,0.13
2019-03-10T09:20:08.061Z,0.40
2019-03-10T09:22:53.611Z,0.25
2019-03-10T09:25:39.892Z,0.20
2019-03-10T09:28:12.808Z,0.20
2019-03-10T09:33:24.196Z,0.30
2019-03-10T09:36:11.817Z,0.30
2019-03-10T09:38:44.888Z,0.20
2019-03-10T09:41:27.240Z,0.30
2019-03-10T09:44:19.072Z,0.37
2019-03-10T09:50:00.277Z,0.20
2019-03-10T09:52:36.095Z,0.25
2019-03-10T09:55:22.370Z,0.20
2019-03-10T09:58:07.325Z,0.40
2019-03-10T10:03:33.455Z,0.30
2019-03-10T10:09:03.925Z,0.20
2019-03-10T10:11:34.016Z,0.40
2019-03-10T10:14:04.099Z,0.60
2019-03-10T10:16:36.940Z,0.30
2019-03-10T10:19:07.039Z,0.40
2019-03-10T10:21:39.872Z,0.20
2019-03-10T10:24:12.619Z,0.37
2019-03-10T10:27:14.469Z,0.20
2019-03-10T10:29:50.648Z,0.30
2019-03-10T10:32:26.478Z,0.20
2019-03-10T10:35:12.820Z,0.78
2019-03-10T10:37:55.279Z,0.28
2019-03-10T10:40:41.788Z,0.20
2019-03-10T10:46:19.050Z,0.25
2019-03-10T10:48:51.852Z,0.23
2019-03-10T10:54:19.932Z,0.30
2019-03-10T10:59:37.568Z,0.30
2019-03-10T11:04:51.944Z,0.20
2019-03-10T11:07:40.087Z,0.33
2019-03-10T11:10:18.191Z,0.20
2019-03-10T11:12:54.171Z,0.30
2019-03-10T11:15:40.902Z,0.47
2019-03-10T11:18:11.007Z,0.30
2019-03-10T11:20:41.108Z,0.33
2019-03-10T11:23:30.557Z,0.30
2019-03-10T11:26:00.629Z,0.20
2019-03-10T11:28:33.611Z,0.40
2019-03-10T11:31:03.720Z,0.20
2019-03-10T11:33:39.668Z,0.30
2019-03-10T11:36:26.316Z,0.30
2019-03-10T11:42:17.824Z,0.40
2019-03-10T11:50:21.400Z,0.40
2019-03-10T11:52:57.079Z,0.60
2019-03-10T11:55:27.345Z,0.40
2019-03-10T11:57:57.675Z,0.57
2019-03-10T12:01:11.426Z,0.40
2019-03-10T12:03:50.461Z,0.50
2019-03-10T12:06:20.728Z,0.30
2019-03-10T12:08:50.885Z,0.88
2019-03-10T12:11:19.338Z,0.47
2019-03-10T12:13:47.891Z,0.40
2019-03-10T12:16:16.400Z,0.85
2019-03-10T12:18:44.847Z,0.50
2019-03-10T12:21:13.308Z,0.60
2019-03-10T12:23:41.756Z,0.62
2019-03-10T12:26:10.274Z,0.40
2019-03-10T12:28:38.755Z,0.68
2019-03-10T12:31:07.262Z,0.60
2019-03-10T12:33:35.710Z,0.70
2019-03-10T12:36:04.335Z,0.70
2019-03-10T12:38:32.785Z,0.60
2019-03-10T12:41:01.234Z,0.72
2019-03-10T12:43:29.804Z,0.80
2019-03-10T12:45:58.281Z,0.70
2019-03-10T12:48:26.725Z,0.47
2019-03-10T12:50:55.453Z,0.50
2019-03-10T12:53:24.002Z,0.70
2019-03-10T12:55:52.441Z,0.60
2019-03-10T12:58:20.910Z,0.57
2019-03-10T13:00:49.423Z,0.70
2019-03-10T13:03:17.939Z,0.68
2019-03-10T13:05:46.552Z,0.75
2019-03-10T13:08:14.986Z,0.80
2019-03-10T13:10:43.433Z,0.85
2019-03-10T13:13:11.995Z,0.85
2019-03-10T13:15:40.450Z,0.70
2019-03-10T13:18:09.133Z,0.50
2019-03-10T13:20:37.681Z,0.72
2019-03-10T13:23:06.268Z,0.70
2019-03-10T13:25:34.888Z,0.80
2019-03-10T13:28:03.514Z,0.80
2019-03-10T13:30:31.956Z,0.80
2019-03-10T13:33:00.395Z,0.98
2019-03-10T13:35:28.946Z,0.80
2019-03-10T13:37:57.472Z,0.55
2019-03-10T13:40:25.912Z,0.60
2019-03-10T13:42:54.496Z,0.60
2019-03-10T13:45:23.013Z,0.90
2019-03-10T13:47:51.463Z,0.70
2019-03-10T13:50:20.012Z,0.50
2019-03-10T13:52:53.796Z,0.65
2019-03-10T13:55:22.313Z,0.85
2019-03-10T13:57:50.784Z,0.50
2019-03-10T14:00:22.505Z,0.88
2019-03-10T14:02:51.022Z,0.55
2019-03-10T14:05:19.660Z,0.70
2019-03-10T14:07:48.105Z,0.80
2019-03-10T14:10:16.625Z,0.60
2019-03-10T14:12:45.196Z,0.90
2019-03-10T14:15:15.997Z,1.12
2019-03-10T14:17:44.512Z,0.70
2019-03-10T14:20:14.732Z,0.78
2019-03-10T14:22:43.413Z,0.75
2019-03-10T14:25:13.311Z,0.75
2019-03-10T14:27:42.764Z,0.80
2019-03-10T14:30:16.727Z,0.80
2019-03-10T14:32:45.175Z,0.93
2019-03-10T14:35:14.498Z,0.95
2019-03-10T14:37:42.984Z,0.90
2019-03-10T14:40:14.132Z,1.20
2019-03-10T14:43:01.993Z,1.05
2019-03-10T14:45:36.358Z,1.35
2019-03-10T14:48:04.979Z,0.72
2019-03-10T14:50:33.683Z,1.40
2019-03-10T14:53:04.530Z,1.02
2019-03-10T14:55:32.360Z,1.00
2019-03-10T14:58:00.904Z,0.93
2019-03-10T15:00:29.985Z,1.20
2019-03-10T15:02:58.562Z,1.30
2019-03-10T15:05:27.095Z,1.20
2019-03-10T15:07:55.606Z,1.27
2019-03-10T15:10:24.223Z,1.40
2019-03-10T15:12:52.691Z,1.10
2019-03-10T15:15:23.126Z,1.22
2019-03-10T15:17:51.986Z,0.90
2019-03-10T15:20:21.741Z,1.00
2019-03-10T15:22:50.571Z,1.25
2019-03-10T15:25:20.351Z,1.20
2019-03-10T15:27:49.103Z,1.30
2019-03-10T15:30:19.953Z,0.90
2019-03-10T15:32:49.291Z,0.93
2019-03-10T15:35:17.827Z,0.95
2019-03-10T15:37:46.269Z,0.90
2019-03-10T15:40:18.593Z,0.90
2019-03-10T15:42:47.199Z,1.00
2019-03-10T15:45:17.757Z,0.88
2019-03-10T15:47:46.410Z,1.00
2019-03-10T15:50:28.807Z,0.93
2019-03-10T15:52:57.249Z,0.85
2019-03-10T15:55:25.757Z,1.10
2019-03-10T15:57:54.233Z,1.02
2019-03-10T16:00:24.234Z,0.90
2019-03-10T16:02:52.862Z,1.40
2019-03-10T16:05:21.636Z,1.45
2019-03-10T16:07:50.148Z,1.00
2019-03-10T16:10:18.876Z,1.02
2019-03-10T16:12:49.414Z,0.82
2019-03-10T16:15:19.188Z,1.02
2019-03-10T16:17:47.773Z,1.17
2019-03-10T16:20:16.541Z,1.47
2019-03-10T16:22:45.168Z,1.10
2019-03-10T16:25:20.760Z,1.07
2019-03-10T16:27:50.033Z,1.65
2019-03-10T16:30:21.803Z,1.10
2019-03-10T16:32:50.290Z,1.20
2019-03-10T16:35:18.861Z,1.30
2019-03-10T16:37:47.367Z,1.40
2019-03-10T16:40:17.012Z,1.20
2019-03-10T16:42:45.608Z,1.45
2019-03-10T16:45:27.078Z,1.20
2019-03-10T16:47:57.544Z,1.47
2019-03-10T16:50:50.066Z,1.32
2019-03-10T16:53:19.555Z,1.45
2019-03-10T16:55:47.997Z,1.35
2019-03-10T16:58:16.459Z,1.45
2019-03-10T17:00:44.949Z,1.62
2019-03-10T17:03:13.459Z,1.50
2019-03-10T17:05:41.981Z,1.80
2019-03-10T17:08:10.547Z,1.50
2019-03-10T17:10:38.988Z,1.70
2019-03-10T17:13:07.573Z,1.70
2019-03-10T17:15:36.788Z,1.50
2019-03-10T17:18:05.323Z,1.45
2019-03-10T17:20:33.880Z,1.20
2019-03-10T17:23:02.332Z,1.85
2019-03-10T17:25:30.790Z,1.67
2019-03-10T17:27:59.252Z,1.62
2019-03-10T17:30:27.755Z,1.42
2019-03-10T17:32:56.195Z,1.52
2019-03-10T17:35:24.733Z,1.50
2019-03-10T17:37:53.173Z,1.37
2019-03-10T17:40:23.926Z,1.22
2019-03-10T17:42:52.850Z,1.62
2019-03-10T17:45:22.604Z,1.20
2019-03-10T17:47:51.395Z,1.90
2019-03-10T17:50:20.269Z,1.47
2019-03-10T17:52:49.739Z,1.80
2019-03-10T17:55:39.079Z,1.90
2019-03-10T17:58:07.614Z,1.37
2019-03-10T18:00:37.425Z,1.77
2019-03-10T18:03:06.223Z,1.98
2019-03-10T18:05:34.681Z,1.62
2019-03-10T18:08:03.185Z,1.65
2019-03-10T18:10:31.642Z,2.00
2019-03-10T18:13:00.094Z,2.15
2019-03-10T18:15:28.530Z,2.30
2019-03-10T18:17:57.122Z,2.02
2019-03-10T18:20:25.638Z,1.87
2019-03-10T18:22:54.207Z,2.27
2019-03-10T18:25:22.747Z,1.70
2019-03-10T18:27:51.186Z,1.85
2019-03-10T18:30:21.948Z,1.67
2019-03-10T18:32:50.462Z,2.10
2019-03-10T18:35:21.881Z,1.80
2019-03-10T18:37:50.332Z,1.30
2019-03-10T18:40:45.364Z,1.60
2019-03-10T18:43:13.812Z,1.85
2019-03-10T18:45:42.332Z,1.85
2019-03-10T18:48:10.880Z,1.30
2019-03-10T18:50:39.401Z,1.92
2019-03-10T18:53:07.915Z,2.30
2019-03-10T18:55:36.451Z,3.27
2019-03-10T18:58:04.949Z,1.40
2019-03-10T19:00:33.470Z,1.80
2019-03-10T19:03:01.927Z,1.77
2019-03-10T19:05:30.380Z,1.20
2019-03-10T19:07:58.824Z,0.70
2019-03-10T19:10:27.361Z,1.00
2019-03-10T19:12:55.812Z,1.47
2019-03-10T19:15:25.722Z,1.12
2019-03-10T19:17:54.363Z,2.05
2019-03-10T19:20:22.878Z,1.40
2019-03-10T19:22:51.323Z,1.67
2019-03-10T19:25:19.856Z,3.20
2019-03-10T19:27:48.384Z,2.35
2019-03-10T19:30:21.628Z,3.17
2019-03-10T19:32:50.236Z,2.10
2019-03-10T19:35:18.832Z,1.45
2019-03-10T19:37:47.405Z,1.70
2019-03-10T19:40:17.214Z,2.45
2019-03-10T19:42:45.799Z,2.17
2019-03-10T19:45:18.693Z,2.62
2019-03-10T19:47:47.241Z,2.77
2019-03-10T19:50:17.123Z,2.75
2019-03-10T19:52:45.554Z,2.40
2019-03-10T19:55:15.354Z,1.90
2019-03-10T19:57:46.965Z,1.95
2019-03-10T20:00:17.061Z,2.00
2019-03-10T20:02:45.875Z,1.67
2019-03-10T20:05:15.343Z,2.20
2019-03-10T20:07:44.676Z,3.08
2019-03-10T20:10:20.653Z,3.25
2019-03-10T20:12:49.109Z,2.75
2019-03-10T20:15:38.595Z,2.10
2019-03-10T20:18:07.117Z,2.22
2019-03-10T20:20:35.581Z,2.27
2019-03-10T20:23:04.126Z,2.20
2019-03-10T20:25:37.814Z,3.17
2019-03-10T20:28:06.288Z,2.90
2019-03-10T20:30:34.845Z,3.37
2019-03-10T20:33:03.303Z,2.10
2019-03-10T20:35:31.817Z,2.00
2019-03-10T20:38:00.376Z,2.42
2019-03-10T20:40:29.327Z,1.92
2019-03-10T20:42:57.986Z,1.90
2019-03-10T20:45:26.643Z,1.98
2019-03-10T20:47:56.788Z,2.10
2019-03-10T20:50:27.586Z,1.72
2019-03-10T20:52:55.835Z,1.85
2019-03-10T20:55:24.361Z,1.70
2019-03-10T20:57:52.817Z,2.12
2019-03-10T21:00:26.931Z,2.00
2019-03-10T21:02:55.598Z,1.80
2019-03-10T21:05:24.315Z,2.15
2019-03-10T21:07:52.893Z,2.05
2019-03-10T21:10:30.456Z,2.02
2019-03-10T21:12:59.133Z,1.90
2019-03-10T21:15:27.757Z,2.00
2019-03-10T21:17:56.232Z,1.90
2019-03-10T21:20:25.634Z,1.87
2019-03-10T21:22:59.913Z,1.87
2019-03-10T21:25:30.772Z,2.10
2019-03-10T21:27:59.352Z,1.67
2019-03-10T21:30:31.739Z,1.85
2019-03-10T21:33:00.292Z,1.60
2019-03-10T21:35:28.736Z,1.90
2019-03-10T21:37:57.265Z,2.15
2019-03-10T21:40:33.617Z,1.92
2019-03-10T21:43:02.140Z,2.30
2019-03-10T21:45:30.812Z,2.35
2019-03-10T21:47:59.373Z,1.85
2019-03-10T21:50:27.841Z,1.82
2019-03-10T21:52:56.280Z,3.02
2019-03-10T21:55:24.874Z,2.40
2019-03-10T21:57:53.312Z,2.40
2019-03-10T22:00:21.743Z,2.20
2019-03-10T22:02:50.292Z,2.40
2019-03-10T22:05:18.896Z,2.00
2019-03-10T22:07:47.472Z,1.95
2019-03-10T22:10:26.167Z,2.08
2019-03-10T22:12:47.891Z,2.12
2019-03-10T22:18:13.333Z,1.57
2019-03-10T22:20:41.770Z,2.08
2019-03-10T22:23:10.226Z,1.40
2019-03-10T22:25:38.765Z,2.17
2019-03-10T22:28:07.217Z,1.60
2019-03-10T22:30:35.725Z,2.00
2019-03-10T22:33:04.239Z,1.52
2019-03-10T22:35:32.681Z,1.32
2019-03-10T22:38:01.134Z,2.15
2019-03-10T22:40:29.608Z,1.50
2019-03-10T22:42:58.047Z,1.55
2019-03-10T22:45:26.561Z,1.40
2019-03-10T22:47:55.102Z,1.92
2019-03-10T22:50:23.544Z,1.50
2019-03-10T22:52:51.991Z,1.47
2019-03-10T22:55:20.553Z,1.42
2019-03-10T22:57:48.990Z,1.25
2019-03-10T23:00:43.005Z,1.52
2019-03-10T23:03:11.728Z,1.20
2019-03-10T23:05:41.651Z,1.22
2019-03-10T23:08:31.247Z,1.60
2019-03-10T23:10:59.760Z,1.20
2019-03-10T23:13:28.304Z,1.90
2019-03-10T23:15:56.860Z,1.57
2019-03-10T23:18:25.979Z,1.00
2019-03-10T23:20:54.556Z,1.30
2019-03-10T23:23:23.024Z,1.40
2019-03-10T23:25:51.728Z,1.25
2019-03-10T23:28:20.175Z,1.22
2019-03-10T23:30:50.130Z,1.20
2019-03-10T23:33:18.588Z,1.27
2019-03-10T23:35:47.048Z,1.22
2019-03-10T23:38:15.524Z,1.57
2019-03-10T23:40:43.963Z,1.40
2019-03-10T23:43:12.413Z,1.47
2019-03-10T23:45:40.888Z,1.10
2019-03-10T23:48:09.329Z,1.10
2019-03-10T23:50:37.776Z,1.15
2019-03-10T23:53:06.236Z,1.32
2019-03-10T23:55:34.724Z,1.57
2019-03-10T23:58:03.166Z,1.65
